Time;durP1;ratioP1;P1;durP2;ratioP2;P2;SDS_P1;SDS_P2;PMS_P1;PMS_P2;Temp;Humidity;BMP_temperature;BMP_pressure;BME280_temperature;BME280_humidity;BME280_pressure;Samples;Min_cycle;Max_cycle;Signal;HPM_P1;HPM_P2
2022/09/02 00:01:12;;;;;;;;;;;18.00;99.90;;;;;;5077833;28;19897;-67
2022/09/02 00:03:38;;;;;;;;;;;18.00;99.90;;;;;;5099140;28;19905;-67
2022/09/02 00:06:03;;;;;;;;;;;18.00;99.90;;;;;;5085960;28;19912;-67
2022/09/02 00:08:32;;;;;;;;;;;17.90;99.90;;;;;;5076793;28;19901;-67
2022/09/02 00:10:59;;;;;;;;;;;17.80;99.90;;;;;;5081442;28;19927;-67
2022/09/02 00:13:25;;;;;;;;;;;17.70;99.90;;;;;;5076538;28;19904;-67
2022/09/02 00:15:51;;;;;;;;;;;17.70;99.90;;;;;;5081925;28;19924;-67
2022/09/02 00:18:17;;;;;;;;;;;17.60;99.90;;;;;;5092111;28;19921;-67
2022/09/02 00:20:44;;;;;;;;;;;17.50;99.90;;;;;;5083582;28;19928;-67
2022/09/02 00:23:10;;;;;;;;;;;17.50;99.90;;;;;;5088668;28;19916;-67
2022/09/02 00:25:36;;;;;;;;;;;17.40;99.90;;;;;;5093035;28;19911;-67
2022/09/02 00:28:02;;;;;;;;;;;17.40;99.90;;;;;;5082213;28;19904;-68
2022/09/02 00:30:28;;;;;;;;;;;17.40;99.90;;;;;;5084559;28;19952;-68
2022/09/02 00:32:54;;;;;;;;;;;17.40;99.90;;;;;;5083731;28;19911;-67
2022/09/02 00:35:19;;;;;;;;;;;17.40;99.90;;;;;;5085787;28;19912;-67
2022/09/02 00:37:45;;;;;;;;;;;17.40;99.90;;;;;;5092838;28;19901;-67
2022/09/02 00:40:11;;;;;;;;;;;17.40;99.90;;;;;;5098864;28;19900;-67
2022/09/02 00:42:37;;;;;;;;;;;17.30;99.90;;;;;;5080609;28;19901;-68
2022/09/02 00:45:04;;;;;;;;;;;17.30;99.90;;;;;;5091769;28;19904;-67
2022/09/02 00:47:30;;;;;;;;;;;17.30;99.90;;;;;;5079134;28;19907;-68
2022/09/02 00:49:57;;;;;;;;;;;17.30;99.90;;;;;;5080203;28;19905;-67
2022/09/02 00:52:24;;;;;;;;;;;17.30;99.90;;;;;;5079435;28;19924;-67
2022/09/02 00:55:10;;;;;;;;;;;17.30;99.90;;;;;;5080415;28;19950;-68
2022/09/02 00:57:38;;;;;;;;;;;17.30;99.90;;;;;;5080024;28;19913;-67
2022/09/02 01:00:10;;;;;;;;;;;17.20;99.90;;;;;;5073783;28;19908;-67
2022/09/02 01:02:37;;;;;;;;;;;17.40;99.90;;;;;;5089118;28;19933;-67
2022/09/02 01:05:04;;;;;;;;;;;17.40;99.90;;;;;;5093075;28;19915;-67
2022/09/02 01:07:33;;;;;;;;;;;17.60;99.90;;;;;;5082481;28;19927;-67
2022/09/02 01:09:59;;;;;;;;;;;17.60;99.90;;;;;;5087363;28;19901;-67
2022/09/02 01:12:26;;;;;;;;;;;17.70;99.90;;;;;;5085719;28;19968;-67
2022/09/02 01:14:51;;;;;;;;;;;17.60;99.90;;;;;;5083272;28;19924;-67
2022/09/02 01:17:18;;;;;;;;;;;17.60;99.90;;;;;;5080340;28;19901;-68
2022/09/02 01:19:46;;;;;;;;;;;17.60;99.90;;;;;;5083861;28;19921;-67
2022/09/02 01:22:19;;;;;;;;;;;17.60;99.90;;;;;;5090391;28;19928;-68
2022/09/02 01:24:44;;;;;;;;;;;17.60;99.90;;;;;;5080753;28;19939;-66
2022/09/02 01:27:13;;;;;;;;;;;17.60;99.90;;;;;;5083172;28;19925;-68
2022/09/02 01:29:39;;;;;;;;;;;17.60;99.90;;;;;;5089020;28;19920;-67
2022/09/02 01:32:04;;;;;;;;;;;17.60;99.90;;;;;;5102814;28;19900;-66
2022/09/02 01:34:30;;;;;;;;;;;17.50;99.90;;;;;;5089351;28;19968;-67
2022/09/02 01:36:56;;;;;;;;;;;17.50;99.90;;;;;;5079509;28;19917;-67
2022/09/02 01:39:21;;;;;;;;;;;17.50;99.90;;;;;;5078821;28;19951;-66
2022/09/02 01:41:47;;;;;;;;;;;17.50;99.90;;;;;;5087419;28;19921;-67
2022/09/02 01:44:15;;;;;;;;;;;17.50;99.90;;;;;;5091425;28;19951;-68
2022/09/02 01:46:40;;;;;;;;;;;17.50;99.90;;;;;;5081155;28;19901;-67
2022/09/02 01:49:06;;;;;;;;;;;17.50;99.90;;;;;;5079186;28;19969;-67
2022/09/02 01:51:32;;;;;;;;;;;17.40;99.90;;;;;;5078703;28;19928;-68
2022/09/02 01:53:57;;;;;;;;;;;17.30;99.90;;;;;;5097063;28;19897;-71
2022/09/02 01:56:23;;;;;;;;;;;17.30;99.90;;;;;;5081590;28;19933;-69
2022/09/02 01:58:48;;;;;;;;;;;17.20;99.90;;;;;;5088604;28;19928;-67
2022/09/02 02:01:14;;;;;;;;;;;17.20;99.90;;;;;;5092032;28;19964;-68
2022/09/02 02:03:40;;;;;;;;;;;17.10;99.90;;;;;;5083252;28;19901;-67
2022/09/02 02:06:10;;;;;;;;;;;17.10;99.90;;;;;;5078241;28;19905;-67
2022/09/02 02:08:36;;;;;;;;;;;17.00;99.90;;;;;;5078390;28;19905;-66
2022/09/02 02:11:01;;;;;;;;;;;17.00;99.90;;;;;;5083598;28;19930;-67
2022/09/02 02:13:27;;;;;;;;;;;17.10;99.90;;;;;;5081238;28;19905;-67
2022/09/02 02:15:53;;;;;;;;;;;17.10;99.90;;;;;;5087846;28;19996;-68
2022/09/02 02:18:18;;;;;;;;;;;17.10;99.90;;;;;;5079719;28;19901;-67
2022/09/02 02:20:44;;;;;;;;;;;17.20;99.90;;;;;;5082396;28;19900;-68
2022/09/02 02:23:09;;;;;;;;;;;17.10;99.90;;;;;;5080286;28;19916;-68
2022/09/02 02:25:35;;;;;;;;;;;17.10;99.90;;;;;;5088292;28;19909;-67
2022/09/02 02:28:01;;;;;;;;;;;17.10;99.90;;;;;;5083636;28;20014;-68
2022/09/02 02:30:26;;;;;;;;;;;17.10;99.90;;;;;;5081926;28;19901;-67
2022/09/02 02:32:52;;;;;;;;;;;17.10;99.90;;;;;;5081417;28;19901;-68
2022/09/02 02:35:18;;;;;;;;;;;17.00;99.90;;;;;;5068382;28;19939;-67
2022/09/02 02:37:47;;;;;;;;;;;17.00;99.90;;;;;;5079349;28;19988;-67
2022/09/02 02:40:13;;;;;;;;;;;16.90;99.90;;;;;;5076463;28;19955;-68
2022/09/02 02:42:39;;;;;;;;;;;16.90;99.90;;;;;;5082193;28;19973;-67
2022/09/02 02:45:08;;;;;;;;;;;17.00;99.90;;;;;;5086173;28;19921;-67
2022/09/02 02:47:34;;;;;;;;;;;17.00;99.90;;;;;;5083036;28;19901;-68
2022/09/02 02:49:59;;;;;;;;;;;17.00;99.90;;;;;;5081250;28;19901;-67
2022/09/02 02:52:26;;;;;;;;;;;17.00;99.90;;;;;;5082745;28;19904;-66
2022/09/02 02:54:51;;;;;;;;;;;17.00;99.90;;;;;;5090405;28;19909;-67
2022/09/02 02:57:17;;;;;;;;;;;16.90;99.90;;;;;;5076379;28;19935;-67
2022/09/02 02:59:44;;;;;;;;;;;16.80;99.90;;;;;;5080706;28;22473;-67
2022/09/02 03:02:10;;;;;;;;;;;16.80;99.90;;;;;;5088357;28;19935;-67
2022/09/02 03:04:38;;;;;;;;;;;16.70;99.90;;;;;;5085751;28;19962;-68
2022/09/02 03:07:05;;;;;;;;;;;16.70;99.90;;;;;;5088284;28;19904;-67
2022/09/02 03:09:31;;;;;;;;;;;16.60;99.90;;;;;;5080177;28;19908;-67
2022/09/02 03:11:57;;;;;;;;;;;16.50;99.90;;;;;;5084439;28;19901;-67
2022/09/02 03:14:23;;;;;;;;;;;16.50;99.90;;;;;;5076517;28;19973;-68
2022/09/02 03:16:49;;;;;;;;;;;16.50;99.90;;;;;;5086620;28;19913;-68
2022/09/02 03:19:14;;;;;;;;;;;16.50;99.90;;;;;;5089698;28;19901;-67
2022/09/02 03:21:41;;;;;;;;;;;16.60;99.90;;;;;;5081423;28;19979;-68
2022/09/02 03:24:07;;;;;;;;;;;16.50;99.90;;;;;;5084719;28;19932;-68
2022/09/02 03:26:33;;;;;;;;;;;16.50;99.90;;;;;;5067152;28;19900;-68
2022/09/02 03:28:58;;;;;;;;;;;16.50;99.90;;;;;;5083711;28;19901;-67
2022/09/02 03:31:24;;;;;;;;;;;16.50;99.90;;;;;;5077613;28;19904;-67
2022/09/02 03:33:50;;;;;;;;;;;16.40;99.90;;;;;;5082478;28;19960;-67
2022/09/02 03:36:26;;;;;;;;;;;16.40;99.90;;;;;;5087679;28;19917;-67
2022/09/02 03:38:52;;;;;;;;;;;16.50;99.90;;;;;;5078371;28;19939;-68
2022/09/02 03:41:18;;;;;;;;;;;16.50;99.90;;;;;;5097602;28;19901;-67
2022/09/02 03:43:44;;;;;;;;;;;16.50;99.90;;;;;;5084389;28;19901;-67
2022/09/02 03:46:10;;;;;;;;;;;16.60;99.90;;;;;;5081636;28;19920;-67
2022/09/02 03:48:35;;;;;;;;;;;16.60;99.90;;;;;;5082405;28;19940;-68
2022/09/02 03:51:01;;;;;;;;;;;16.60;99.90;;;;;;5091731;28;19932;-68
2022/09/02 03:53:27;;;;;;;;;;;16.60;99.90;;;;;;5096940;28;19912;-67
2022/09/02 03:55:53;;;;;;;;;;;16.60;99.90;;;;;;5086944;28;20762;-67
2022/09/02 03:58:21;;;;;;;;;;;16.70;99.90;;;;;;5091021;28;19911;-68
2022/09/02 04:00:51;;;;;;;;;;;16.80;99.90;;;;;;5079930;28;19924;-68
2022/09/02 04:03:17;;;;;;;;;;;16.80;99.90;;;;;;5080187;28;19928;-67
2022/09/02 04:05:45;;;;;;;;;;;16.80;99.90;;;;;;5083210;28;19967;-67
2022/09/02 04:08:11;;;;;;;;;;;16.80;99.90;;;;;;5102979;28;19917;-68
2022/09/02 04:10:37;;;;;;;;;;;16.70;99.90;;;;;;5093342;28;19904;-68
2022/09/02 04:13:02;;;;;;;;;;;16.60;99.90;;;;;;5082559;28;19921;-67
2022/09/02 04:15:28;;;;;;;;;;;16.60;99.90;;;;;;5080887;28;19931;-67
2022/09/02 04:17:55;;;;;;;;;;;16.60;99.90;;;;;;5091049;28;19975;-67
2022/09/02 04:20:21;;;;;;;;;;;16.50;99.90;;;;;;5080433;28;19905;-67
2022/09/02 04:22:47;;;;;;;;;;;16.60;99.90;;;;;;5085843;28;19927;-67
2022/09/02 04:25:13;;;;;;;;;;;16.70;99.90;;;;;;5083427;28;19964;-67
2022/09/02 04:27:38;;;;;;;;;;;16.80;99.90;;;;;;5086110;28;20335;-67
2022/09/02 04:30:05;;;;;;;;;;;16.80;99.90;;;;;;5080877;28;19896;-67
2022/09/02 04:32:30;;;;;;;;;;;16.80;99.90;;;;;;5083631;28;19905;-67
2022/09/02 04:34:56;;;;;;;;;;;16.80;99.90;;;;;;5086300;28;19909;-67
2022/09/02 04:37:22;;;;;;;;;;;16.80;99.90;;;;;;5090773;28;19904;-67
2022/09/02 04:39:47;;;;;;;;;;;16.60;99.90;;;;;;5095912;28;19921;-67
2022/09/02 04:42:13;;;;;;;;;;;16.50;99.90;;;;;;5084677;28;19905;-67
2022/09/02 04:44:38;;;;;;;;;;;16.40;99.90;;;;;;5081900;28;19908;-67
2022/09/02 04:47:04;;;;;;;;;;;16.30;99.90;;;;;;5087394;28;19936;-67
2022/09/02 04:49:31;;;;;;;;;;;16.30;99.90;;;;;;5080419;28;19912;-67
2022/09/02 04:51:57;;;;;;;;;;;16.30;99.90;;;;;;5079603;28;19916;-67
2022/09/02 04:54:23;;;;;;;;;;;16.30;99.90;;;;;;5086878;28;19909;-68
2022/09/02 04:56:48;;;;;;;;;;;16.30;99.90;;;;;;5088779;28;19983;-68
2022/09/02 04:59:14;;;;;;;;;;;16.30;99.90;;;;;;5082378;28;19941;-67
2022/09/02 05:01:40;;;;;;;;;;;16.20;99.90;;;;;;5081865;28;19924;-68
2022/09/02 05:04:08;;;;;;;;;;;16.20;99.90;;;;;;5083694;28;19925;-67
2022/09/02 05:06:34;;;;;;;;;;;16.10;99.90;;;;;;5069233;28;19905;-67
2022/09/02 05:09:02;;;;;;;;;;;16.00;99.90;;;;;;5080252;28;19921;-67
2022/09/02 05:11:28;;;;;;;;;;;16.10;99.90;;;;;;5080053;28;19905;-67
2022/09/02 05:13:55;;;;;;;;;;;16.00;99.90;;;;;;5078772;28;19921;-67
2022/09/02 05:16:22;;;;;;;;;;;16.00;99.90;;;;;;5088387;28;19934;-68
2022/09/02 05:18:49;;;;;;;;;;;16.00;99.90;;;;;;5083355;28;19905;-67
2022/09/02 05:21:15;;;;;;;;;;;15.90;99.90;;;;;;5097504;28;19919;-67
2022/09/02 05:23:41;;;;;;;;;;;15.90;99.90;;;;;;5082507;28;19901;-67
2022/09/02 05:26:07;;;;;;;;;;;15.90;99.90;;;;;;5082410;28;19909;-68
2022/09/02 05:28:33;;;;;;;;;;;15.90;99.90;;;;;;5079827;28;19901;-67
2022/09/02 05:31:04;;;;;;;;;;;16.00;99.90;;;;;;5079612;28;19935;-69
2022/09/02 05:33:30;;;;;;;;;;;16.00;99.90;;;;;;5086049;28;19901;-67
2022/09/02 05:35:56;;;;;;;;;;;16.10;99.90;;;;;;5103972;28;19940;-68
2022/09/02 05:38:21;;;;;;;;;;;16.20;99.90;;;;;;5084276;28;19905;-68
2022/09/02 05:40:47;;;;;;;;;;;16.20;99.90;;;;;;5096358;28;19908;-68
2022/09/02 05:43:12;;;;;;;;;;;16.20;99.90;;;;;;5082626;28;19905;-68
2022/09/02 05:45:39;;;;;;;;;;;16.10;99.90;;;;;;5091018;28;19968;-68
2022/09/02 05:49:04;;;;;;;;;;;16.10;99.90;;;;;;5078653;28;19917;-69
2022/09/02 05:50:50;;;;;;;;;;;16.10;99.90;;;;;;5079467;28;19905;-67
2022/09/02 05:53:16;;;;;;;;;;;16.20;99.90;;;;;;5086020;28;19901;-69
2022/09/02 05:55:41;;;;;;;;;;;16.20;99.90;;;;;;5088275;28;19909;-69
2022/09/02 05:58:07;;;;;;;;;;;16.20;99.90;;;;;;5083655;28;19904;-68
2022/09/02 06:00:32;;;;;;;;;;;16.30;99.90;;;;;;5076104;28;19979;-67
2022/09/02 06:02:58;;;;;;;;;;;16.30;99.90;;;;;;5078837;28;19904;-67
2022/09/02 06:05:24;;;;;;;;;;;16.30;99.90;;;;;;5078673;28;19932;-67
2022/09/02 06:07:49;;;;;;;;;;;16.30;99.90;;;;;;5078582;28;19917;-67
2022/09/02 06:10:15;;;;;;;;;;;16.40;99.90;;;;;;5083085;28;19905;-68
2022/09/02 06:12:41;;;;;;;;;;;16.40;99.90;;;;;;5101490;28;20009;-68
2022/09/02 06:15:07;;;;;;;;;;;16.60;99.90;;;;;;5085517;28;19912;-68
2022/09/02 06:17:32;;;;;;;;;;;16.70;99.90;;;;;;5086283;28;19967;-68
2022/09/02 06:19:58;;;;;;;;;;;16.80;99.90;;;;;;5075428;28;19905;-68
2022/09/02 06:22:23;;;;;;;;;;;16.90;99.90;;;;;;5093619;28;19924;-67
2022/09/02 06:24:49;;;;;;;;;;;17.00;99.90;;;;;;5084975;28;19905;-69
2022/09/02 06:27:15;;;;;;;;;;;17.00;99.90;;;;;;5088075;28;19946;-68
2022/09/02 06:29:41;;;;;;;;;;;17.20;99.90;;;;;;5079274;28;19905;-68
2022/09/02 06:32:07;;;;;;;;;;;17.20;99.90;;;;;;5076614;28;19923;-67
2022/09/02 06:34:34;;;;;;;;;;;17.20;99.90;;;;;;5076754;28;19904;-67
2022/09/02 06:36:59;;;;;;;;;;;17.10;99.90;;;;;;5077827;28;19912;-67
2022/09/02 06:39:25;;;;;;;;;;;17.30;99.90;;;;;;5076625;28;19982;-67
2022/09/02 06:41:51;;;;;;;;;;;17.20;99.90;;;;;;5081527;28;19907;-67
2022/09/02 06:44:18;;;;;;;;;;;17.20;99.90;;;;;;5087135;28;19916;-69
2022/09/02 06:46:46;;;;;;;;;;;17.20;99.90;;;;;;5076502;28;19915;-68
2022/09/02 06:49:15;;;;;;;;;;;17.20;99.90;;;;;;5077223;28;19911;-68
2022/09/02 06:51:45;;;;;;;;;;;17.30;99.90;;;;;;5083882;28;20007;-67
2022/09/02 06:54:12;;;;;;;;;;;17.20;99.90;;;;;;5074766;28;19955;-67
2022/09/02 06:56:38;;;;;;;;;;;17.30;99.90;;;;;;5078558;28;19913;-68
2022/09/02 06:59:04;;;;;;;;;;;17.40;99.90;;;;;;5092571;28;19901;-67
2022/09/02 07:01:31;;;;;;;;;;;17.50;99.90;;;;;;5081790;28;20070;-69
2022/09/02 07:06:58;;;;;;;;;;;17.40;99.90;;;;;;5055093;28;19916;-68
2022/09/02 07:09:29;;;;;;;;;;;17.50;99.90;;;;;;5089120;28;19905;-68
2022/09/02 07:11:56;;;;;;;;;;;17.50;99.90;;;;;;5075584;28;19901;-67
2022/09/02 07:14:23;;;;;;;;;;;17.60;99.90;;;;;;5065331;28;19964;-68
2022/09/02 07:16:50;;;;;;;;;;;17.70;99.90;;;;;;5078764;28;19912;-70
2022/09/02 07:19:15;;;;;;;;;;;17.70;99.90;;;;;;5081255;28;19921;-68
2022/09/02 07:21:41;;;;;;;;;;;17.80;99.90;;;;;;5082514;28;19927;-69
2022/09/02 07:24:08;;;;;;;;;;;17.80;99.90;;;;;;5086809;28;19908;-67
2022/09/02 07:26:33;;;;;;;;;;;17.80;99.90;;;;;;5078271;28;19909;-68
2022/09/02 07:28:59;;;;;;;;;;;17.80;99.90;;;;;;5083973;28;19931;-67
2022/09/02 07:31:26;;;;;;;;;;;17.90;99.90;;;;;;5088172;28;19927;-68
2022/09/02 07:33:52;;;;;;;;;;;17.90;99.90;;;;;;5093509;28;19932;-68
2022/09/02 07:36:20;;;;;;;;;;;18.00;99.90;;;;;;5082681;28;19913;-69
2022/09/02 07:38:46;;;;;;;;;;;18.10;99.90;;;;;;5068072;28;19915;-67
2022/09/02 07:41:12;;;;;;;;;;;18.10;99.90;;;;;;5081644;28;19968;-69
2022/09/02 07:43:39;;;;;;;;;;;18.20;99.90;;;;;;5063012;28;19961;-69
2022/09/02 07:46:06;;;;;;;;;;;18.10;99.90;;;;;;5073861;28;19905;-68
2022/09/02 07:48:32;;;;;;;;;;;18.00;99.90;;;;;;5075988;28;19947;-68
2022/09/02 07:50:58;;;;;;;;;;;18.10;99.90;;;;;;5085987;28;19909;-69
2022/09/02 07:53:24;;;;;;;;;;;18.10;99.90;;;;;;5076825;28;19988;-67
2022/09/02 07:55:50;;;;;;;;;;;18.30;99.90;;;;;;5081478;28;19912;-68
2022/09/02 07:58:18;;;;;;;;;;;18.40;99.90;;;;;;5079599;28;19908;-68
2022/09/02 08:00:48;;;;;;;;;;;18.50;99.90;;;;;;5078844;28;19912;-68
2022/09/02 08:03:13;;;;;;;;;;;18.60;99.90;;;;;;5075097;28;19901;-68
2022/09/02 08:05:40;;;;;;;;;;;18.70;99.90;;;;;;5079072;28;19935;-67
2022/09/02 08:08:06;;;;;;;;;;;18.80;99.90;;;;;;5083361;28;19912;-68
2022/09/02 08:10:32;;;;;;;;;;;19.00;99.90;;;;;;5087875;28;19908;-68
2022/09/02 08:12:59;;;;;;;;;;;19.10;99.90;;;;;;5077485;28;19960;-67
2022/09/02 08:15:27;;;;;;;;;;;19.20;99.90;;;;;;5082691;28;19912;-68
2022/09/02 08:17:53;;;;;;;;;;;19.30;99.90;;;;;;5061327;28;19958;-68
2022/09/02 08:20:19;;;;;;;;;;;19.40;99.90;;;;;;5074630;28;19901;-69
2022/09/02 08:22:44;;;;;;;;;;;19.40;99.90;;;;;;5075690;28;19901;-67
2022/09/02 08:25:10;;;;;;;;;;;19.40;99.90;;;;;;5099131;28;19905;-68
2022/09/02 08:27:36;;;;;;;;;;;19.20;99.90;;;;;;5086914;28;19901;-67
2022/09/02 08:30:03;;;;;;;;;;;19.30;99.90;;;;;;5093843;28;19919;-68
2022/09/02 08:32:31;;;;;;;;;;;19.30;99.90;;;;;;5080958;28;19931;-66
2022/09/02 08:35:01;;;;;;;;;;;19.40;99.90;;;;;;5081225;28;19904;-68
2022/09/02 08:37:31;;;;;;;;;;;19.60;99.90;;;;;;5082356;28;19968;-69
2022/09/02 08:39:57;;;;;;;;;;;19.70;99.90;;;;;;5079356;28;19901;-67
2022/09/02 08:42:39;;;;;;;;;;;19.70;99.90;;;;;;5083607;28;19901;-68
2022/09/02 08:45:19;;;;;;;;;;;19.90;99.90;;;;;;5067508;28;19932;-68
2022/09/02 08:47:46;;;;;;;;;;;20.00;99.90;;;;;;5078294;28;20008;-67
2022/09/02 08:50:13;;;;;;;;;;;20.20;99.90;;;;;;5078442;28;19912;-68
2022/09/02 08:52:51;;;;;;;;;;;20.10;99.90;;;;;;5080616;28;19921;-69
2022/09/02 08:55:19;;;;;;;;;;;19.80;99.90;;;;;;5094528;28;19921;-68
2022/09/02 08:57:45;;;;;;;;;;;19.70;99.90;;;;;;5088123;28;19968;-69
2022/09/02 09:00:11;;;;;;;;;;;19.60;99.90;;;;;;5080819;28;19905;-68
2022/09/02 09:02:56;;;;;;;;;;;19.70;99.90;;;;;;5081995;28;19904;-68
2022/09/02 09:05:26;;;;;;;;;;;19.80;99.90;;;;;;5080759;28;19904;-68
2022/09/02 09:08:01;;;;;;;;;;;20.00;99.90;;;;;;5083780;28;19940;-68
2022/09/02 09:10:29;;;;;;;;;;;20.10;99.90;;;;;;5078631;28;19912;-68
2022/09/02 09:13:10;;;;;;;;;;;20.10;99.90;;;;;;5097697;28;19967;-68
2022/09/02 09:15:36;;;;;;;;;;;20.10;99.90;;;;;;5084868;28;19988;-68
2022/09/02 09:18:04;;;;;;;;;;;20.40;99.90;;;;;;5091234;28;19983;-68
2022/09/02 09:20:34;;;;;;;;;;;20.50;99.90;;;;;;5077582;28;19917;-69
2022/09/02 09:23:00;;;;;;;;;;;20.30;99.90;;;;;;5077813;28;19905;-68
2022/09/02 09:25:29;;;;;;;;;;;20.30;99.90;;;;;;5074804;28;19925;-68
2022/09/02 09:27:58;;;;;;;;;;;20.40;99.90;;;;;;5077325;28;19905;-67
2022/09/02 09:30:24;;;;;;;;;;;20.20;99.90;;;;;;5078868;28;19940;-68
2022/09/02 09:32:56;;;;;;;;;;;20.00;99.90;;;;;;5088313;28;19912;-67
2022/09/02 09:35:22;;;;;;;;;;;20.10;99.90;;;;;;5096698;28;19913;-69
2022/09/02 09:37:49;;;;;;;;;;;20.30;99.90;;;;;;5084366;28;19905;-67
2022/09/02 09:40:17;;;;;;;;;;;20.40;99.90;;;;;;5076379;28;20393;-68
2022/09/02 09:42:43;;;;;;;;;;;20.30;99.90;;;;;;5078232;28;19904;-68
2022/09/02 09:45:15;;;;;;;;;;;20.10;99.90;;;;;;5077963;28;19916;-69
2022/09/02 09:47:41;;;;;;;;;;;20.20;99.90;;;;;;5076766;28;19916;-68
2022/09/02 09:50:10;;;;;;;;;;;20.30;99.90;;;;;;5093544;28;19935;-68
2022/09/02 09:52:36;;;;;;;;;;;20.30;99.90;;;;;;5076824;28;19913;-68
2022/09/02 09:55:11;;;;;;;;;;;20.40;99.90;;;;;;5086782;28;19905;-68
2022/09/02 09:57:38;;;;;;;;;;;20.50;99.90;;;;;;5092504;28;19951;-68
2022/09/02 10:00:24;;;;;;;;;;;20.60;99.90;;;;;;5096572;28;19977;-69
2022/09/02 10:02:51;;;;;;;;;;;20.60;99.90;;;;;;5076778;28;19911;-67
2022/09/02 10:05:26;;;;;;;;;;;20.60;99.90;;;;;;5089466;28;19931;-67
2022/09/02 10:07:53;;;;;;;;;;;20.90;99.90;;;;;;5079399;28;19907;-68
2022/09/02 10:10:20;;;;;;;;;;;21.30;99.90;;;;;;5077001;28;19904;-67
2022/09/02 10:12:49;;;;;;;;;;;21.40;99.90;;;;;;5081063;28;19911;-66
2022/09/02 10:15:19;;;;;;;;;;;21.50;99.90;;;;;;5078249;28;19936;-68
2022/09/02 10:17:45;;;;;;;;;;;21.40;99.90;;;;;;5077609;28;19901;-67
2022/09/02 10:20:15;;;;;;;;;;;21.20;99.90;;;;;;5076953;28;19971;-68
2022/09/02 10:22:49;;;;;;;;;;;21.30;99.90;;;;;;5085572;28;20494;-67
2022/09/02 10:25:19;;;;;;;;;;;21.40;99.90;;;;;;5090459;28;19967;-68
2022/09/02 10:27:47;;;;;;;;;;;21.50;99.90;;;;;;5079965;28;19932;-68
2022/09/02 10:30:18;;;;;;;;;;;21.50;99.90;;;;;;5100013;28;19976;-67
2022/09/02 10:32:52;;;;;;;;;;;21.60;99.90;;;;;;5070777;28;19915;-67
2022/09/02 10:35:23;;;;;;;;;;;21.70;99.90;;;;;;5084505;28;19946;-68
2022/09/02 10:37:48;;;;;;;;;;;21.70;99.90;;;;;;5079530;28;19901;-68
2022/09/02 10:40:16;;;;;;;;;;;21.40;99.90;;;;;;5081904;28;19976;-68
2022/09/02 10:42:57;;;;;;;;;;;21.60;99.90;;;;;;5076043;28;19980;-68
2022/09/02 10:45:29;;;;;;;;;;;21.80;99.90;;;;;;5103917;28;19916;-67
2022/09/02 10:48:03;;;;;;;;;;;22.00;99.90;;;;;;5077373;28;19924;-69
2022/09/02 10:50:35;;;;;;;;;;;22.00;99.90;;;;;;5082357;28;19912;-68
2022/09/02 10:53:00;;;;;;;;;;;22.10;99.90;;;;;;5079652;28;19915;-69
2022/09/02 10:55:27;;;;;;;;;;;22.20;99.90;;;;;;5109277;28;20016;-69
2022/09/02 10:57:57;;;;;;;;;;;22.30;99.90;;;;;;5095361;28;19917;-68
2022/09/02 11:00:23;;;;;;;;;;;22.40;99.90;;;;;;5095522;28;19927;-68
2022/09/02 11:02:55;;;;;;;;;;;22.70;99.90;;;;;;5078975;28;19947;-68
2022/09/02 11:05:26;;;;;;;;;;;22.60;99.90;;;;;;5075223;28;19905;-69
2022/09/02 11:07:54;;;;;;;;;;;22.60;99.90;;;;;;5086420;28;19956;-69
2022/09/02 11:10:26;;;;;;;;;;;22.70;99.90;;;;;;5077430;28;19928;-69
2022/09/02 11:12:55;;;;;;;;;;;22.90;99.90;;;;;;5097020;28;19930;-68
2022/09/02 11:15:39;;;;;;;;;;;23.00;99.90;;;;;;5084520;28;19920;-68
2022/09/02 11:18:12;;;;;;;;;;;23.30;99.90;;;;;;5087974;28;19904;-68
2022/09/02 11:20:53;;;;;;;;;;;23.20;99.90;;;;;;5074966;28;19905;-68
2022/09/02 11:23:26;;;;;;;;;;;23.20;99.90;;;;;;5100068;28;19905;-68
2022/09/02 11:25:59;;;;;;;;;;;23.40;99.90;;;;;;5082125;28;19908;-67
2022/09/02 11:28:30;;;;;;;;;;;23.30;99.90;;;;;;5076005;28;19972;-68
2022/09/02 11:31:16;;;;;;;;;;;23.40;99.90;;;;;;5077836;28;19962;-69
2022/09/02 11:33:49;;;;;;;;;;;23.50;99.90;;;;;;5076693;28;19901;-69
2022/09/02 11:36:17;;;;;;;;;;;23.40;87.40;;;;;;5081914;28;19912;-69
2022/09/02 11:38:55;;;;;;;;;;;23.30;82.40;;;;;;5075288;28;19917;-67
2022/09/02 11:41:20;;;;;;;;;;;23.10;82.00;;;;;;5074975;28;19992;-69
2022/09/02 11:43:52;;;;;;;;;;;23.10;81.20;;;;;;5075237;28;19931;-68
2022/09/02 11:46:36;;;;;;;;;;;23.10;80.90;;;;;;5096368;28;19921;-68
2022/09/02 11:49:07;;;;;;;;;;;23.30;83.20;;;;;;5074323;28;19905;-68
2022/09/02 11:51:33;;;;;;;;;;;23.70;80.80;;;;;;5085836;28;19967;-67
2022/09/02 11:54:01;;;;;;;;;;;23.60;78.00;;;;;;5074882;28;19931;-68
2022/09/02 11:56:29;;;;;;;;;;;23.40;78.10;;;;;;5079365;28;19925;-68
2022/09/02 11:58:55;;;;;;;;;;;23.20;81.70;;;;;;5076923;28;19907;-68
2022/09/02 12:01:24;;;;;;;;;;;23.40;80.20;;;;;;5081330;28;19912;-70
2022/09/02 12:03:58;;;;;;;;;;;23.70;78.70;;;;;;5088095;28;19939;-68
2022/09/02 12:06:25;;;;;;;;;;;23.80;77.80;;;;;;5078095;28;19943;-69
2022/09/02 12:08:50;;;;;;;;;;;23.90;76.50;;;;;;5077238;28;19916;-69
2022/09/02 12:11:31;;;;;;;;;;;23.90;77.60;;;;;;5077827;28;19948;-69
2022/09/02 12:13:57;;;;;;;;;;;24.20;75.60;;;;;;5076784;28;19920;-68
2022/09/02 12:16:29;;;;;;;;;;;24.00;73.30;;;;;;5078589;28;19925;-68
2022/09/02 12:18:57;;;;;;;;;;;24.00;74.70;;;;;;5094628;28;19905;-69
2022/09/02 12:21:34;;;;;;;;;;;23.80;75.10;;;;;;5080225;28;19944;-68
2022/09/02 12:23:59;;;;;;;;;;;24.10;72.50;;;;;;5086735;28;19928;-68
2022/09/02 12:26:28;;;;;;;;;;;24.10;71.30;;;;;;5075075;28;19913;-68
2022/09/02 12:29:09;;;;;;;;;;;24.20;70.70;;;;;;5085134;28;19911;-68
2022/09/02 12:31:42;;;;;;;;;;;24.30;73.60;;;;;;5079177;28;19905;-68
2022/09/02 12:34:20;;;;;;;;;;;24.30;68.90;;;;;;5079521;28;19965;-69
2022/09/02 12:36:45;;;;;;;;;;;24.10;71.20;;;;;;5078934;28;19928;-68
2022/09/02 12:39:34;;;;;;;;;;;24.40;69.70;;;;;;5077539;28;19969;-69
2022/09/02 12:42:07;;;;;;;;;;;24.70;67.00;;;;;;5070151;28;19976;-69
2022/09/02 12:44:43;;;;;;;;;;;24.20;65.80;;;;;;5087379;28;19923;-68
2022/09/02 12:47:28;;;;;;;;;;;24.00;67.70;;;;;;5082042;28;19904;-67
2022/09/02 12:50:01;;;;;;;;;;;24.10;68.90;;;;;;5085289;28;19983;-68
2022/09/02 12:52:33;;;;;;;;;;;24.10;66.60;;;;;;5081545;28;19912;-68
2022/09/02 12:55:17;;;;;;;;;;;24.20;66.00;;;;;;5094548;28;19901;-68
2022/09/02 12:57:44;;;;;;;;;;;24.20;66.30;;;;;;5079192;28;19940;-68
2022/09/02 13:00:14;;;;;;;;;;;24.40;62.30;;;;;;5078339;28;19951;-69
2022/09/02 13:02:59;;;;;;;;;;;24.20;62.30;;;;;;5086661;28;19920;-68
2022/09/02 13:05:38;;;;;;;;;;;24.40;64.60;;;;;;5091081;28;19909;-70
2022/09/02 13:08:19;;;;;;;;;;;24.50;61.70;;;;;;5081076;28;19931;-71
2022/09/02 13:11:03;;;;;;;;;;;24.60;61.80;;;;;;5075044;28;19905;-70
2022/09/02 13:13:38;;;;;;;;;;;24.80;60.30;;;;;;5109047;28;19909;-71
2022/09/02 13:16:06;;;;;;;;;;;24.50;64.10;;;;;;5089326;28;19913;-70
2022/09/02 13:18:34;;;;;;;;;;;24.50;63.00;;;;;;5078790;28;19925;-70
2022/09/02 13:21:03;;;;;;;;;;;24.70;60.40;;;;;;5083177;28;19928;-70
2022/09/02 13:23:47;;;;;;;;;;;24.80;62.00;;;;;;5099565;28;19904;-70
2022/09/02 13:26:32;;;;;;;;;;;24.70;61.00;;;;;;5078435;28;19980;-71
2022/09/02 13:28:57;;;;;;;;;;;24.90;63.10;;;;;;5080888;28;19928;-70
2022/09/02 13:31:24;;;;;;;;;;;24.80;64.10;;;;;;5078663;28;19947;-70
2022/09/02 13:34:00;;;;;;;;;;;25.00;64.50;;;;;;5082932;28;19912;-70
2022/09/02 13:36:27;;;;;;;;;;;25.20;61.30;;;;;;5067111;28;19925;-71
2022/09/02 13:38:52;;;;;;;;;;;24.90;60.10;;;;;;5079291;28;19904;-71
2022/09/02 13:41:28;;;;;;;;;;;24.90;58.30;;;;;;5081802;28;19905;-70
2022/09/02 13:44:08;;;;;;;;;;;24.70;58.30;;;;;;5078042;28;19905;-71
2022/09/02 13:46:41;;;;;;;;;;;24.50;61.40;;;;;;5084992;28;19905;-70
2022/09/02 13:49:16;;;;;;;;;;;24.60;57.10;;;;;;5079970;28;19934;-70
2022/09/02 13:51:44;;;;;;;;;;;24.70;56.10;;;;;;5077746;28;19992;-68
2022/09/02 13:54:10;;;;;;;;;;;24.70;57.10;;;;;;5096515;28;19944;-68
2022/09/02 13:56:35;;;;;;;;;;;24.70;58.40;;;;;;5072696;28;19913;-68
2022/09/02 13:59:01;;;;;;;;;;;24.60;59.50;;;;;;5076770;28;19939;-67
2022/09/02 14:01:33;;;;;;;;;;;24.60;59.60;;;;;;5077470;28;19965;-68
2022/09/02 14:04:02;;;;;;;;;;;24.80;59.90;;;;;;5100571;28;19921;-69
2022/09/02 14:06:29;;;;;;;;;;;24.90;61.70;;;;;;5088711;28;19904;-68
2022/09/02 14:08:58;;;;;;;;;;;24.90;57.60;;;;;;5079457;28;19901;-68
2022/09/02 14:11:25;;;;;;;;;;;24.70;59.90;;;;;;5082350;28;19905;-68
2022/09/02 14:13:51;;;;;;;;;;;24.60;59.40;;;;;;5097872;28;19900;-68
2022/09/02 14:16:23;;;;;;;;;;;24.70;56.60;;;;;;5081269;28;19913;-68
2022/09/02 14:19:02;;;;;;;;;;;24.80;59.40;;;;;;5076661;28;19917;-69
2022/09/02 14:21:28;;;;;;;;;;;24.70;58.00;;;;;;5077763;28;19939;-68
2022/09/02 14:23:53;;;;;;;;;;;24.50;55.20;;;;;;5077201;28;19909;-68
2022/09/02 14:26:40;;;;;;;;;;;24.50;58.20;;;;;;5076422;28;19904;-68